sensor_id;sensor_type;location;lat;lon;timestamp;P1;durP1;ratioP1;P2;durP2;ratioP2
9388;SDS011;4734;52.778;6.798;2024-02-23T00:01:52;0.40;;;0.40;;
9388;SDS011;4734;52.778;6.798;2024-02-23T00:04:38;5.35;;;0.82;;
9388;SDS011;4734;52.778;6.798;2024-02-23T00:07:25;1.55;;;0.57;;
9388;SDS011;4734;52.778;6.798;2024-02-23T00:10:10;1.17;;;0.70;;
9388;SDS011;4734;52.778;6.798;2024-02-23T00:12:56;1.25;;;0.60;;
9388;SDS011;4734;52.778;6.798;2024-02-23T00:15:42;0.75;;;0.68;;
9388;SDS011;4734;52.778;6.798;2024-02-23T00:18:28;0.97;;;0.60;;
9388;SDS011;4734;52.778;6.798;2024-02-23T00:21:13;1.07;;;0.50;;
9388;SDS011;4734;52.778;6.798;2024-02-23T00:24:00;0.38;;;0.35;;
9388;SDS011;4734;52.778;6.798;2024-02-23T00:26:47;1.10;;;0.70;;
9388;SDS011;4734;52.778;6.798;2024-02-23T00:29:34;0.73;;;0.40;;
9388;SDS011;4734;52.778;6.798;2024-02-23T00:32:20;0.37;;;0.37;;
9388;SDS011;4734;52.778;6.798;2024-02-23T00:35:06;0.60;;;0.30;;
9388;SDS011;4734;52.778;6.798;2024-02-23T00:37:51;0.38;;;0.30;;
9388;SDS011;4734;52.778;6.798;2024-02-23T00:40:38;2.60;;;0.70;;
9388;SDS011;4734;52.778;6.798;2024-02-23T00:43:24;1.33;;;0.70;;
9388;SDS011;4734;52.778;6.798;2024-02-23T00:46:10;0.93;;;0.60;;
9388;SDS011;4734;52.778;6.798;2024-02-23T00:48:55;1.00;;;0.57;;
9388;SDS011;4734;52.778;6.798;2024-02-23T00:51:41;0.50;;;0.50;;
9388;SDS011;4734;52.778;6.798;2024-02-23T00:54:27;0.83;;;0.50;;
9388;SDS011;4734;52.778;6.798;2024-02-23T00:57:14;0.50;;;0.50;;
9388;SDS011;4734;52.778;6.798;2024-02-23T01:00:02;0.47;;;0.47;;
9388;SDS011;4734;52.778;6.798;2024-02-23T01:02:49;0.93;;;0.50;;
9388;SDS011;4734;52.778;6.798;2024-02-23T01:05:34;0.40;;;0.40;;
9388;SDS011;4734;52.778;6.798;2024-02-23T01:08:21;0.60;;;0.50;;
9388;SDS011;4734;52.778;6.798;2024-02-23T01:11:07;0.60;;;0.60;;
9388;SDS011;4734;52.778;6.798;2024-02-23T01:13:54;1.57;;;0.70;;
9388;SDS011;4734;52.778;6.798;2024-02-23T01:16:39;0.97;;;0.60;;
9388;SDS011;4734;52.778;6.798;2024-02-23T01:19:25;0.50;;;0.50;;
9388;SDS011;4734;52.778;6.798;2024-02-23T01:22:11;0.45;;;0.45;;
9388;SDS011;4734;52.778;6.798;2024-02-23T01:24:56;1.67;;;0.73;;
9388;SDS011;4734;52.778;6.798;2024-02-23T01:27:42;0.60;;;0.60;;
9388;SDS011;4734;52.778;6.798;2024-02-23T01:30:30;0.60;;;0.50;;
9388;SDS011;4734;52.778;6.798;2024-02-23T01:33:15;0.40;;;0.40;;
9388;SDS011;4734;52.778;6.798;2024-02-23T01:36:01;0.80;;;0.80;;
9388;SDS011;4734;52.778;6.798;2024-02-23T01:38:46;1.50;;;0.90;;
9388;SDS011;4734;52.778;6.798;2024-02-23T01:41:32;2.70;;;2.50;;
9388;SDS011;4734;52.778;6.798;2024-02-23T01:44:18;4.70;;;4.03;;
9388;SDS011;4734;52.778;6.798;2024-02-23T01:47:06;1.67;;;1.50;;
9388;SDS011;4734;52.778;6.798;2024-02-23T01:49:52;1.13;;;1.03;;
9388;SDS011;4734;52.778;6.798;2024-02-23T01:52:38;0.60;;;0.60;;
9388;SDS011;4734;52.778;6.798;2024-02-23T01:55:24;3.13;;;1.30;;
9388;SDS011;4734;52.778;6.798;2024-02-23T01:58:09;2.17;;;1.10;;
9388;SDS011;4734;52.778;6.798;2024-02-23T02:00:55;3.87;;;1.30;;
9388;SDS011;4734;52.778;6.798;2024-02-23T02:03:42;3.70;;;1.30;;
9388;SDS011;4734;52.778;6.798;2024-02-23T02:06:28;4.07;;;1.30;;
9388;SDS011;4734;52.778;6.798;2024-02-23T02:09:13;3.17;;;1.20;;
9388;SDS011;4734;52.778;6.798;2024-02-23T02:11:59;3.40;;;1.63;;
9388;SDS011;4734;52.778;6.798;2024-02-23T02:14:44;6.23;;;1.57;;
9388;SDS011;4734;52.778;6.798;2024-02-23T02:17:30;4.67;;;1.73;;
9388;SDS011;4734;52.778;6.798;2024-02-23T02:20:17;4.80;;;1.67;;
9388;SDS011;4734;52.778;6.798;2024-02-23T02:23:07;4.40;;;1.70;;
9388;SDS011;4734;52.778;6.798;2024-02-23T02:25:54;6.53;;;1.50;;
9388;SDS011;4734;52.778;6.798;2024-02-23T02:28:40;5.00;;;1.73;;
9388;SDS011;4734;52.778;6.798;2024-02-23T02:31:26;4.90;;;1.77;;
9388;SDS011;4734;52.778;6.798;2024-02-23T02:34:11;2.83;;;1.57;;
9388;SDS011;4734;52.778;6.798;2024-02-23T02:36:59;3.63;;;1.60;;
9388;SDS011;4734;52.778;6.798;2024-02-23T02:39:45;5.93;;;2.03;;
9388;SDS011;4734;52.778;6.798;2024-02-23T02:42:31;5.87;;;1.93;;
9388;SDS011;4734;52.778;6.798;2024-02-23T02:45:17;4.10;;;2.07;;
9388;SDS011;4734;52.778;6.798;2024-02-23T02:48:03;4.73;;;1.90;;
9388;SDS011;4734;52.778;6.798;2024-02-23T02:50:49;3.23;;;1.67;;
9388;SDS011;4734;52.778;6.798;2024-02-23T02:53:36;4.07;;;1.90;;
9388;SDS011;4734;52.778;6.798;2024-02-23T02:56:21;3.10;;;1.33;;
9388;SDS011;4734;52.778;6.798;2024-02-23T02:59:07;6.30;;;1.90;;
9388;SDS011;4734;52.778;6.798;2024-02-23T03:01:54;3.07;;;1.40;;
9388;SDS011;4734;52.778;6.798;2024-02-23T03:04:46;4.67;;;1.50;;
9388;SDS011;4734;52.778;6.798;2024-02-23T03:07:32;3.63;;;1.60;;
9388;SDS011;4734;52.778;6.798;2024-02-23T03:10:19;3.20;;;1.50;;
9388;SDS011;4734;52.778;6.798;2024-02-23T03:13:04;1.98;;;1.10;;
9388;SDS011;4734;52.778;6.798;2024-02-23T03:15:50;1.93;;;1.10;;
9388;SDS011;4734;52.778;6.798;2024-02-23T03:18:35;2.03;;;1.40;;
9388;SDS011;4734;52.778;6.798;2024-02-23T03:21:21;2.30;;;1.30;;
9388;SDS011;4734;52.778;6.798;2024-02-23T03:24:07;2.90;;;1.40;;
9388;SDS011;4734;52.778;6.798;2024-02-23T03:26:54;2.50;;;1.43;;
9388;SDS011;4734;52.778;6.798;2024-02-23T03:29:40;4.30;;;1.43;;
9388;SDS011;4734;52.778;6.798;2024-02-23T03:32:25;2.83;;;1.63;;
9388;SDS011;4734;52.778;6.798;2024-02-23T03:35:11;3.67;;;1.63;;
9388;SDS011;4734;52.778;6.798;2024-02-23T03:37:57;3.37;;;1.23;;
9388;SDS011;4734;52.778;6.798;2024-02-23T03:40:43;3.57;;;1.20;;
9388;SDS011;4734;52.778;6.798;2024-02-23T03:43:30;4.60;;;1.50;;
9388;SDS011;4734;52.778;6.798;2024-02-23T03:46:15;2.57;;;1.50;;
9388;SDS011;4734;52.778;6.798;2024-02-23T03:49:01;1.90;;;1.30;;
9388;SDS011;4734;52.778;6.798;2024-02-23T03:51:47;2.83;;;1.20;;
9388;SDS011;4734;52.778;6.798;2024-02-23T03:54:33;1.70;;;1.03;;
9388;SDS011;4734;52.778;6.798;2024-02-23T03:57:19;3.60;;;2.00;;
9388;SDS011;4734;52.778;6.798;2024-02-23T04:00:06;2.80;;;1.30;;
9388;SDS011;4734;52.778;6.798;2024-02-23T04:02:52;1.27;;;1.07;;
9388;SDS011;4734;52.778;6.798;2024-02-23T04:05:38;2.43;;;1.33;;
9388;SDS011;4734;52.778;6.798;2024-02-23T04:08:23;2.90;;;1.30;;
9388;SDS011;4734;52.778;6.798;2024-02-23T04:11:12;3.00;;;1.20;;
9388;SDS011;4734;52.778;6.798;2024-02-23T04:13:58;4.70;;;1.30;;
9388;SDS011;4734;52.778;6.798;2024-02-23T04:16:45;2.13;;;1.37;;
9388;SDS011;4734;52.778;6.798;2024-02-23T04:19:31;2.13;;;1.40;;
9388;SDS011;4734;52.778;6.798;2024-02-23T04:22:16;3.93;;;1.70;;
9388;SDS011;4734;52.778;6.798;2024-02-23T04:25:02;2.90;;;1.10;;
9388;SDS011;4734;52.778;6.798;2024-02-23T04:27:48;3.63;;;1.27;;
9388;SDS011;4734;52.778;6.798;2024-02-23T04:30:33;4.23;;;1.07;;
9388;SDS011;4734;52.778;6.798;2024-02-23T04:33:21;5.23;;;1.27;;
9388;SDS011;4734;52.778;6.798;2024-02-23T04:36:07;1.30;;;1.20;;
9388;SDS011;4734;52.778;6.798;2024-02-23T04:38:52;5.33;;;1.50;;
9388;SDS011;4734;52.778;6.798;2024-02-23T04:41:38;3.30;;;1.40;;
9388;SDS011;4734;52.778;6.798;2024-02-23T04:44:23;3.13;;;1.50;;
9388;SDS011;4734;52.778;6.798;2024-02-23T04:47:09;2.90;;;1.60;;
9388;SDS011;4734;52.778;6.798;2024-02-23T04:49:56;4.53;;;1.80;;
9388;SDS011;4734;52.778;6.798;2024-02-23T04:52:43;4.93;;;2.60;;
9388;SDS011;4734;52.778;6.798;2024-02-23T04:55:28;6.37;;;2.80;;
9388;SDS011;4734;52.778;6.798;2024-02-23T04:58:14;5.90;;;3.00;;
9388;SDS011;4734;52.778;6.798;2024-02-23T05:00:59;7.33;;;3.53;;
9388;SDS011;4734;52.778;6.798;2024-02-23T05:03:46;6.40;;;3.23;;
9388;SDS011;4734;52.778;6.798;2024-02-23T05:06:33;4.43;;;3.10;;
9388;SDS011;4734;52.778;6.798;2024-02-23T05:09:19;6.93;;;3.17;;
9388;SDS011;4734;52.778;6.798;2024-02-23T05:12:05;4.00;;;2.93;;
9388;SDS011;4734;52.778;6.798;2024-02-23T05:14:51;5.03;;;3.07;;
9388;SDS011;4734;52.778;6.798;2024-02-23T05:17:37;4.27;;;2.90;;
9388;SDS011;4734;52.778;6.798;2024-02-23T05:20:23;4.77;;;2.83;;
9388;SDS011;4734;52.778;6.798;2024-02-23T05:23:10;5.93;;;3.03;;
9388;SDS011;4734;52.778;6.798;2024-02-23T05:25:55;6.57;;;2.97;;
9388;SDS011;4734;52.778;6.798;2024-02-23T05:28:41;6.57;;;2.87;;
9388;SDS011;4734;52.778;6.798;2024-02-23T05:34:29;4.87;;;3.10;;
9388;SDS011;4734;52.778;6.798;2024-02-23T05:37:14;6.50;;;2.50;;
9388;SDS011;4734;52.778;6.798;2024-02-23T05:40:01;4.50;;;2.37;;
9388;SDS011;4734;52.778;6.798;2024-02-23T05:42:51;6.70;;;2.67;;
9388;SDS011;4734;52.778;6.798;2024-02-23T05:45:36;6.03;;;2.87;;
9388;SDS011;4734;52.778;6.798;2024-02-23T05:48:22;3.50;;;2.50;;
9388;SDS011;4734;52.778;6.798;2024-02-23T05:51:07;4.70;;;2.57;;
9388;SDS011;4734;52.778;6.798;2024-02-23T05:53:53;4.90;;;2.70;;
9388;SDS011;4734;52.778;6.798;2024-02-23T05:56:40;6.00;;;2.80;;
9388;SDS011;4734;52.778;6.798;2024-02-23T05:59:26;5.17;;;3.17;;
9388;SDS011;4734;52.778;6.798;2024-02-23T06:02:13;5.20;;;2.53;;
9388;SDS011;4734;52.778;6.798;2024-02-23T06:04:58;7.30;;;3.03;;
9388;SDS011;4734;52.778;6.798;2024-02-23T06:07:44;5.50;;;2.93;;
9388;SDS011;4734;52.778;6.798;2024-02-23T06:10:30;4.27;;;3.20;;
9388;SDS011;4734;52.778;6.798;2024-02-23T06:13:18;7.60;;;3.13;;
9388;SDS011;4734;52.778;6.798;2024-02-23T06:16:04;6.60;;;3.00;;
9388;SDS011;4734;52.778;6.798;2024-02-23T06:18:50;6.73;;;2.97;;
9388;SDS011;4734;52.778;6.798;2024-02-23T06:21:35;4.23;;;3.00;;
9388;SDS011;4734;52.778;6.798;2024-02-23T06:24:21;3.80;;;2.90;;
9388;SDS011;4734;52.778;6.798;2024-02-23T06:27:07;5.83;;;2.50;;
9388;SDS011;4734;52.778;6.798;2024-02-23T06:29:54;3.97;;;3.50;;
9388;SDS011;4734;52.778;6.798;2024-02-23T06:32:39;6.97;;;3.60;;
9388;SDS011;4734;52.778;6.798;2024-02-23T06:35:26;6.53;;;3.20;;
9388;SDS011;4734;52.778;6.798;2024-02-23T06:38:12;5.80;;;3.30;;
9388;SDS011;4734;52.778;6.798;2024-02-23T06:40:57;6.43;;;3.40;;
9388;SDS011;4734;52.778;6.798;2024-02-23T06:43:43;4.40;;;3.30;;
9388;SDS011;4734;52.778;6.798;2024-02-23T06:46:30;4.27;;;3.33;;
9388;SDS011;4734;52.778;6.798;2024-02-23T06:49:16;3.63;;;3.03;;
9388;SDS011;4734;52.778;6.798;2024-02-23T06:52:01;7.87;;;3.20;;
9388;SDS011;4734;52.778;6.798;2024-02-23T06:54:47;5.47;;;3.07;;
9388;SDS011;4734;52.778;6.798;2024-02-23T06:57:33;7.60;;;3.10;;
9388;SDS011;4734;52.778;6.798;2024-02-23T07:00:19;6.37;;;2.60;;
9388;SDS011;4734;52.778;6.798;2024-02-23T07:03:07;4.47;;;2.70;;
9388;SDS011;4734;52.778;6.798;2024-02-23T07:05:52;7.50;;;2.97;;
9388;SDS011;4734;52.778;6.798;2024-02-23T07:08:38;5.73;;;2.73;;
9388;SDS011;4734;52.778;6.798;2024-02-23T07:11:24;5.73;;;2.40;;
9388;SDS011;4734;52.778;6.798;2024-02-23T07:14:10;4.03;;;2.23;;
9388;SDS011;4734;52.778;6.798;2024-02-23T07:16:58;5.83;;;2.83;;
9388;SDS011;4734;52.778;6.798;2024-02-23T07:19:45;4.47;;;2.20;;
9388;SDS011;4734;52.778;6.798;2024-02-23T07:22:31;4.47;;;2.03;;
9388;SDS011;4734;52.778;6.798;2024-02-23T07:25:16;6.37;;;2.20;;
9388;SDS011;4734;52.778;6.798;2024-02-23T07:28:04;7.20;;;2.40;;
9388;SDS011;4734;52.778;6.798;2024-02-23T07:30:52;5.07;;;2.03;;
9388;SDS011;4734;52.778;6.798;2024-02-23T07:33:38;7.33;;;2.10;;
9388;SDS011;4734;52.778;6.798;2024-02-23T07:36:25;3.57;;;2.20;;
9388;SDS011;4734;52.778;6.798;2024-02-23T07:39:10;5.23;;;2.17;;
9388;SDS011;4734;52.778;6.798;2024-02-23T07:41:56;5.00;;;2.03;;
9388;SDS011;4734;52.778;6.798;2024-02-23T07:44:41;4.47;;;2.20;;
9388;SDS011;4734;52.778;6.798;2024-02-23T07:47:27;3.70;;;1.53;;
9388;SDS011;4734;52.778;6.798;2024-02-23T07:50:13;2.33;;;1.90;;
9388;SDS011;4734;52.778;6.798;2024-02-23T07:53:00;6.63;;;2.20;;
9388;SDS011;4734;52.778;6.798;2024-02-23T07:55:47;3.33;;;1.90;;
9388;SDS011;4734;52.778;6.798;2024-02-23T07:58:34;3.87;;;1.90;;
9388;SDS011;4734;52.778;6.798;2024-02-23T08:01:19;4.73;;;1.90;;
9388;SDS011;4734;52.778;6.798;2024-02-23T08:04:05;3.53;;;1.87;;
9388;SDS011;4734;52.778;6.798;2024-02-23T08:06:51;3.90;;;1.80;;
9388;SDS011;4734;52.778;6.798;2024-02-23T08:09:38;2.43;;;1.80;;
9388;SDS011;4734;52.778;6.798;2024-02-23T08:12:23;3.07;;;1.77;;
9388;SDS011;4734;52.778;6.798;2024-02-23T08:15:09;3.13;;;1.70;;
9388;SDS011;4734;52.778;6.798;2024-02-23T08:17:54;4.37;;;1.80;;
9388;SDS011;4734;52.778;6.798;2024-02-23T08:20:40;3.87;;;1.53;;
9388;SDS011;4734;52.778;6.798;2024-02-23T08:23:26;5.40;;;1.90;;
9388;SDS011;4734;52.778;6.798;2024-02-23T08:26:23;4.40;;;1.80;;
9388;SDS011;4734;52.778;6.798;2024-02-23T08:29:09;4.30;;;1.87;;
9388;SDS011;4734;52.778;6.798;2024-02-23T08:31:55;4.80;;;1.80;;
9388;SDS011;4734;52.778;6.798;2024-02-23T08:34:41;6.67;;;1.70;;
9388;SDS011;4734;52.778;6.798;2024-02-23T08:37:26;4.60;;;1.37;;
9388;SDS011;4734;52.778;6.798;2024-02-23T08:40:14;5.73;;;1.70;;
9388;SDS011;4734;52.778;6.798;2024-02-23T08:43:04;4.97;;;1.60;;
9388;SDS011;4734;52.778;6.798;2024-02-23T08:45:53;2.37;;;1.37;;
9388;SDS011;4734;52.778;6.798;2024-02-23T08:48:38;3.57;;;1.47;;
9388;SDS011;4734;52.778;6.798;2024-02-23T08:51:28;2.97;;;1.50;;
9388;SDS011;4734;52.778;6.798;2024-02-23T08:54:13;3.53;;;1.57;;
9388;SDS011;4734;52.778;6.798;2024-02-23T08:57:02;4.87;;;1.53;;
9388;SDS011;4734;52.778;6.798;2024-02-23T08:59:49;3.63;;;1.63;;
9388;SDS011;4734;52.778;6.798;2024-02-23T09:02:35;3.30;;;1.40;;
9388;SDS011;4734;52.778;6.798;2024-02-23T09:05:21;3.23;;;1.40;;
9388;SDS011;4734;52.778;6.798;2024-02-23T09:08:07;5.23;;;1.60;;
9388;SDS011;4734;52.778;6.798;2024-02-23T09:10:53;2.97;;;1.50;;
9388;SDS011;4734;52.778;6.798;2024-02-23T09:13:38;4.80;;;1.57;;
9388;SDS011;4734;52.778;6.798;2024-02-23T09:16:27;4.40;;;1.57;;
9388;SDS011;4734;52.778;6.798;2024-02-23T09:19:13;3.40;;;1.53;;
9388;SDS011;4734;52.778;6.798;2024-02-23T09:22:00;2.87;;;1.40;;
9388;SDS011;4734;52.778;6.798;2024-02-23T09:24:46;4.97;;;2.07;;
9388;SDS011;4734;52.778;6.798;2024-02-23T09:27:31;2.77;;;1.30;;
9388;SDS011;4734;52.778;6.798;2024-02-23T09:30:20;5.50;;;2.00;;
9388;SDS011;4734;52.778;6.798;2024-02-23T09:33:06;4.30;;;1.50;;
9388;SDS011;4734;52.778;6.798;2024-02-23T09:35:52;3.90;;;1.50;;
9388;SDS011;4734;52.778;6.798;2024-02-23T09:38:37;3.60;;;1.43;;
9388;SDS011;4734;52.778;6.798;2024-02-23T09:41:23;4.07;;;1.57;;
9388;SDS011;4734;52.778;6.798;2024-02-23T09:44:09;4.03;;;1.63;;
9388;SDS011;4734;52.778;6.798;2024-02-23T09:46:55;2.83;;;1.37;;
9388;SDS011;4734;52.778;6.798;2024-02-23T09:49:43;5.73;;;1.80;;
9388;SDS011;4734;52.778;6.798;2024-02-23T09:52:31;3.60;;;1.60;;
9388;SDS011;4734;52.778;6.798;2024-02-23T09:55:17;3.37;;;1.50;;
9388;SDS011;4734;52.778;6.798;2024-02-23T09:58:04;4.70;;;1.80;;
9388;SDS011;4734;52.778;6.798;2024-02-23T10:00:53;3.80;;;1.40;;
9388;SDS011;4734;52.778;6.798;2024-02-23T10:03:40;3.93;;;1.50;;
9388;SDS011;4734;52.778;6.798;2024-02-23T10:06:28;5.70;;;1.43;;
9388;SDS011;4734;52.778;6.798;2024-02-23T10:09:13;1.60;;;1.10;;
9388;SDS011;4734;52.778;6.798;2024-02-23T10:11:59;3.60;;;1.30;;
9388;SDS011;4734;52.778;6.798;2024-02-23T10:14:45;4.63;;;1.57;;
9388;SDS011;4734;52.778;6.798;2024-02-23T10:17:30;3.43;;;1.30;;
9388;SDS011;4734;52.778;6.798;2024-02-23T10:20:16;3.30;;;1.40;;
9388;SDS011;4734;52.778;6.798;2024-02-23T10:23:03;4.80;;;1.43;;
9388;SDS011;4734;52.778;6.798;2024-02-23T10:25:49;3.10;;;1.30;;
9388;SDS011;4734;52.778;6.798;2024-02-23T10:28:34;6.07;;;1.50;;
9388;SDS011;4734;52.778;6.798;2024-02-23T10:31:22;3.70;;;1.30;;
9388;SDS011;4734;52.778;6.798;2024-02-23T10:34:09;2.83;;;1.70;;
9388;SDS011;4734;52.778;6.798;2024-02-23T10:36:55;4.73;;;1.17;;
9388;SDS011;4734;52.778;6.798;2024-02-23T10:39:43;3.67;;;1.67;;
9388;SDS011;4734;52.778;6.798;2024-02-23T10:42:30;4.23;;;1.27;;
9388;SDS011;4734;52.778;6.798;2024-02-23T10:45:19;5.23;;;1.57;;
9388;SDS011;4734;52.778;6.798;2024-02-23T10:48:09;3.75;;;1.50;;
9388;SDS011;4734;52.778;6.798;2024-02-23T10:50:57;3.17;;;1.20;;
9388;SDS011;4734;52.778;6.798;2024-02-23T10:53:43;2.95;;;1.42;;
9388;SDS011;4734;52.778;6.798;2024-02-23T10:56:31;4.57;;;1.23;;
9388;SDS011;4734;52.778;6.798;2024-02-23T10:59:17;2.70;;;1.45;;
9388;SDS011;4734;52.778;6.798;2024-02-23T11:02:06;4.30;;;1.50;;
9388;SDS011;4734;52.778;6.798;2024-02-23T11:04:52;3.53;;;1.40;;
9388;SDS011;4734;52.778;6.798;2024-02-23T11:07:40;1.83;;;1.20;;
9388;SDS011;4734;52.778;6.798;2024-02-23T11:10:27;4.20;;;1.20;;
9388;SDS011;4734;52.778;6.798;2024-02-23T11:13:15;4.00;;;1.40;;
9388;SDS011;4734;52.778;6.798;2024-02-23T11:16:03;3.97;;;1.33;;
9388;SDS011;4734;52.778;6.798;2024-02-23T11:18:49;4.90;;;1.50;;
9388;SDS011;4734;52.778;6.798;2024-02-23T11:21:52;1.37;;;1.20;;
9388;SDS011;4734;52.778;6.798;2024-02-23T11:24:43;2.43;;;1.40;;
9388;SDS011;4734;52.778;6.798;2024-02-23T11:27:33;3.13;;;1.43;;
9388;SDS011;4734;52.778;6.798;2024-02-23T11:30:44;3.80;;;1.37;;
9388;SDS011;4734;52.778;6.798;2024-02-23T11:33:34;4.77;;;1.37;;
9388;SDS011;4734;52.778;6.798;2024-02-23T11:36:23;3.65;;;1.05;;
9388;SDS011;4734;52.778;6.798;2024-02-23T11:39:09;5.27;;;1.30;;
9388;SDS011;4734;52.778;6.798;2024-02-23T11:41:56;3.10;;;1.53;;
9388;SDS011;4734;52.778;6.798;2024-02-23T11:44:43;1.97;;;1.40;;
9388;SDS011;4734;52.778;6.798;2024-02-23T11:47:30;4.53;;;1.60;;
9388;SDS011;4734;52.778;6.798;2024-02-23T11:50:16;4.63;;;1.50;;
9388;SDS011;4734;52.778;6.798;2024-02-23T11:53:04;5.37;;;1.47;;
9388;SDS011;4734;52.778;6.798;2024-02-23T11:55:50;3.20;;;1.60;;
9388;SDS011;4734;52.778;6.798;2024-02-23T11:58:37;3.70;;;1.40;;
9388;SDS011;4734;52.778;6.798;2024-02-23T12:01:22;4.90;;;1.70;;
9388;SDS011;4734;52.778;6.798;2024-02-23T12:04:09;4.70;;;1.60;;
9388;SDS011;4734;52.778;6.798;2024-02-23T12:06:55;3.07;;;1.40;;
9388;SDS011;4734;52.778;6.798;2024-02-23T12:09:41;3.67;;;1.20;;
9388;SDS011;4734;52.778;6.798;2024-02-23T12:12:26;2.57;;;1.17;;
9388;SDS011;4734;52.778;6.798;2024-02-23T12:15:12;1.63;;;1.30;;
9388;SDS011;4734;52.778;6.798;2024-02-23T12:17:58;5.13;;;1.80;;
9388;SDS011;4734;52.778;6.798;2024-02-23T12:20:48;4.97;;;1.80;;
9388;SDS011;4734;52.778;6.798;2024-02-23T12:23:40;5.30;;;1.80;;
9388;SDS011;4734;52.778;6.798;2024-02-23T12:26:29;2.45;;;1.42;;
9388;SDS011;4734;52.778;6.798;2024-02-23T12:29:20;2.70;;;1.30;;
9388;SDS011;4734;52.778;6.798;2024-02-23T12:32:06;1.83;;;1.33;;
9388;SDS011;4734;52.778;6.798;2024-02-23T12:34:52;2.40;;;1.30;;
9388;SDS011;4734;52.778;6.798;2024-02-23T12:37:39;3.70;;;1.47;;
9388;SDS011;4734;52.778;6.798;2024-02-23T12:40:25;5.47;;;1.50;;
9388;SDS011;4734;52.778;6.798;2024-02-23T12:43:11;4.13;;;1.77;;
9388;SDS011;4734;52.778;6.798;2024-02-23T12:45:57;5.13;;;1.50;;
9388;SDS011;4734;52.778;6.798;2024-02-23T12:48:42;6.23;;;1.60;;
9388;SDS011;4734;52.778;6.798;2024-02-23T12:51:28;4.37;;;1.50;;
9388;SDS011;4734;52.778;6.798;2024-02-23T12:54:15;3.17;;;1.40;;
9388;SDS011;4734;52.778;6.798;2024-02-23T12:57:00;2.47;;;1.17;;
9388;SDS011;4734;52.778;6.798;2024-02-23T12:59:46;5.30;;;1.40;;
9388;SDS011;4734;52.778;6.798;2024-02-23T13:02:32;2.47;;;1.48;;
9388;SDS011;4734;52.778;6.798;2024-02-23T13:05:17;1.30;;;1.20;;
9388;SDS011;4734;52.778;6.798;2024-02-23T13:08:03;4.27;;;1.60;;
9388;SDS011;4734;52.778;6.798;2024-02-23T13:10:51;2.60;;;1.45;;
9388;SDS011;4734;52.778;6.798;2024-02-23T13:13:37;3.10;;;1.40;;
9388;SDS011;4734;52.778;6.798;2024-02-23T13:16:23;2.83;;;1.60;;
9388;SDS011;4734;52.778;6.798;2024-02-23T13:19:09;2.63;;;1.40;;
9388;SDS011;4734;52.778;6.798;2024-02-23T13:21:54;3.00;;;1.27;;
9388;SDS011;4734;52.778;6.798;2024-02-23T13:24:40;3.03;;;1.37;;
9388;SDS011;4734;52.778;6.798;2024-02-23T13:27:28;5.03;;;1.70;;
9388;SDS011;4734;52.778;6.798;2024-02-23T13:30:15;2.67;;;1.63;;
9388;SDS011;4734;52.778;6.798;2024-02-23T13:33:00;3.47;;;1.43;;
9388;SDS011;4734;52.778;6.798;2024-02-23T13:35:46;1.63;;;1.40;;
9388;SDS011;4734;52.778;6.798;2024-02-23T13:38:32;2.70;;;1.30;;
9388;SDS011;4734;52.778;6.798;2024-02-23T13:41:21;1.83;;;1.30;;
9388;SDS011;4734;52.778;6.798;2024-02-23T13:44:22;1.70;;;1.33;;
9388;SDS011;4734;52.778;6.798;2024-02-23T13:47:08;2.90;;;1.30;;
9388;SDS011;4734;52.778;6.798;2024-02-23T13:49:57;2.23;;;1.40;;
9388;SDS011;4734;52.778;6.798;2024-02-23T13:52:46;2.23;;;1.20;;
9388;SDS011;4734;52.778;6.798;2024-02-23T13:55:38;1.67;;;1.20;;
9388;SDS011;4734;52.778;6.798;2024-02-23T13:58:26;3.27;;;1.47;;
9388;SDS011;4734;52.778;6.798;2024-02-23T14:01:17;2.37;;;1.43;;
9388;SDS011;4734;52.778;6.798;2024-02-23T14:04:06;2.57;;;1.40;;
9388;SDS011;4734;52.778;6.798;2024-02-23T14:06:52;2.03;;;1.40;;
9388;SDS011;4734;52.778;6.798;2024-02-23T14:09:38;2.93;;;1.27;;
9388;SDS011;4734;52.778;6.798;2024-02-23T14:12:24;4.70;;;1.50;;
9388;SDS011;4734;52.778;6.798;2024-02-23T14:15:09;1.97;;;1.30;;
9388;SDS011;4734;52.778;6.798;2024-02-23T14:17:57;2.97;;;1.30;;
9388;SDS011;4734;52.778;6.798;2024-02-23T14:20:43;3.83;;;1.63;;
9388;SDS011;4734;52.778;6.798;2024-02-23T14:23:29;5.03;;;1.50;;
9388;SDS011;4734;52.778;6.798;2024-02-23T14:26:15;1.63;;;1.30;;
9388;SDS011;4734;52.778;6.798;2024-02-23T14:29:01;2.50;;;1.23;;
9388;SDS011;4734;52.778;6.798;2024-02-23T14:31:47;5.57;;;1.70;;
9388;SDS011;4734;52.778;6.798;2024-02-23T14:34:34;2.73;;;1.50;;
9388;SDS011;4734;52.778;6.798;2024-02-23T14:37:20;2.78;;;1.42;;
9388;SDS011;4734;52.778;6.798;2024-02-23T14:40:06;2.63;;;1.30;;
9388;SDS011;4734;52.778;6.798;2024-02-23T14:42:53;5.57;;;1.45;;
9388;SDS011;4734;52.778;6.798;2024-02-23T14:45:39;2.17;;;1.30;;
9388;SDS011;4734;52.778;6.798;2024-02-23T14:48:25;1.93;;;1.10;;
9388;SDS011;4734;52.778;6.798;2024-02-23T14:51:12;1.87;;;1.50;;
9388;SDS011;4734;52.778;6.798;2024-02-23T14:53:57;1.80;;;1.53;;
9388;SDS011;4734;52.778;6.798;2024-02-23T14:56:43;4.85;;;1.60;;
9388;SDS011;4734;52.778;6.798;2024-02-23T14:59:28;3.13;;;1.65;;
9388;SDS011;4734;52.778;6.798;2024-02-23T15:02:16;4.87;;;1.67;;
9388;SDS011;4734;52.778;6.798;2024-02-23T15:05:05;3.77;;;1.50;;
9388;SDS011;4734;52.778;6.798;2024-02-23T15:07:56;3.87;;;1.63;;
9388;SDS011;4734;52.778;6.798;2024-02-23T15:10:42;4.68;;;1.50;;
9388;SDS011;4734;52.778;6.798;2024-02-23T15:13:28;2.30;;;1.50;;
9388;SDS011;4734;52.778;6.798;2024-02-23T15:16:14;4.63;;;1.93;;
9388;SDS011;4734;52.778;6.798;2024-02-23T15:19:00;1.60;;;1.50;;
9388;SDS011;4734;52.778;6.798;2024-02-23T15:21:46;2.70;;;1.40;;
9388;SDS011;4734;52.778;6.798;2024-02-23T15:24:33;3.70;;;1.60;;
9388;SDS011;4734;52.778;6.798;2024-02-23T15:27:19;2.37;;;1.57;;
9388;SDS011;4734;52.778;6.798;2024-02-23T15:30:05;3.70;;;1.70;;
9388;SDS011;4734;52.778;6.798;2024-02-23T15:32:53;3.23;;;1.60;;
9388;SDS011;4734;52.778;6.798;2024-02-23T15:35:39;2.35;;;1.63;;
9388;SDS011;4734;52.778;6.798;2024-02-23T15:38:25;4.20;;;1.73;;
9388;SDS011;4734;52.778;6.798;2024-02-23T15:41:13;2.00;;;1.57;;
9388;SDS011;4734;52.778;6.798;2024-02-23T15:43:59;4.63;;;1.70;;
9388;SDS011;4734;52.778;6.798;2024-02-23T15:46:45;4.50;;;1.70;;
9388;SDS011;4734;52.778;6.798;2024-02-23T15:49:31;3.50;;;1.57;;
9388;SDS011;4734;52.778;6.798;2024-02-23T15:52:17;3.93;;;1.77;;
9388;SDS011;4734;52.778;6.798;2024-02-23T15:55:02;2.77;;;1.50;;
9388;SDS011;4734;52.778;6.798;2024-02-23T15:57:50;4.18;;;1.83;;
9388;SDS011;4734;52.778;6.798;2024-02-23T16:00:36;3.55;;;1.50;;
9388;SDS011;4734;52.778;6.798;2024-02-23T16:03:23;2.30;;;1.75;;
9388;SDS011;4734;52.778;6.798;2024-02-23T16:06:08;3.47;;;1.40;;
9388;SDS011;4734;52.778;6.798;2024-02-23T16:08:54;2.90;;;1.58;;
9388;SDS011;4734;52.778;6.798;2024-02-23T16:11:42;2.83;;;1.50;;
9388;SDS011;4734;52.778;6.798;2024-02-23T16:14:31;3.45;;;1.92;;
9388;SDS011;4734;52.778;6.798;2024-02-23T16:17:16;3.17;;;1.63;;
9388;SDS011;4734;52.778;6.798;2024-02-23T16:20:03;4.00;;;1.88;;
9388;SDS011;4734;52.778;6.798;2024-02-23T16:22:50;2.85;;;1.90;;
9388;SDS011;4734;52.778;6.798;2024-02-23T16:25:36;1.90;;;1.50;;
9388;SDS011;4734;52.778;6.798;2024-02-23T16:28:22;3.20;;;1.40;;
9388;SDS011;4734;52.778;6.798;2024-02-23T16:31:09;2.17;;;1.55;;
9388;SDS011;4734;52.778;6.798;2024-02-23T16:33:55;5.03;;;2.08;;
9388;SDS011;4734;52.778;6.798;2024-02-23T16:36:40;3.43;;;1.67;;
9388;SDS011;4734;52.778;6.798;2024-02-23T16:39:28;2.63;;;1.30;;
9388;SDS011;4734;52.778;6.798;2024-02-23T16:42:14;2.70;;;1.67;;
9388;SDS011;4734;52.778;6.798;2024-02-23T16:44:59;2.40;;;1.80;;
9388;SDS011;4734;52.778;6.798;2024-02-23T16:47:47;2.33;;;1.60;;
9388;SDS011;4734;52.778;6.798;2024-02-23T16:50:32;5.30;;;2.17;;
9388;SDS011;4734;52.778;6.798;2024-02-23T16:53:20;3.37;;;1.67;;
9388;SDS011;4734;52.778;6.798;2024-02-23T16:56:06;2.08;;;1.42;;
9388;SDS011;4734;52.778;6.798;2024-02-23T16:58:51;5.43;;;1.73;;
9388;SDS011;4734;52.778;6.798;2024-02-23T17:01:37;4.37;;;1.70;;
9388;SDS011;4734;52.778;6.798;2024-02-23T17:04:25;5.30;;;1.77;;
9388;SDS011;4734;52.778;6.798;2024-02-23T17:07:10;2.53;;;1.55;;
9388;SDS011;4734;52.778;6.798;2024-02-23T17:09:56;3.17;;;1.57;;
9388;SDS011;4734;52.778;6.798;2024-02-23T17:12:42;1.98;;;1.58;;
9388;SDS011;4734;52.778;6.798;2024-02-23T17:15:31;5.93;;;1.60;;
9388;SDS011;4734;52.778;6.798;2024-02-23T17:18:19;2.53;;;1.37;;